Aviation Digital Data Service (ADDS)

Output produced by METARs form (0308 UTC 28 February 2017)
found at http://aviationweather.gov/adds/metars/
 
KJHW 272335Z 2800/2824 20004KT P6SM BKN080 
     FM280400 17004KT P6SM BKN035 
     FM281300 15005KT P6SM BKN130 
     FM281900 18010KT 6SM -SHRA OVC025 
     FM282100 18010KT P6SM VCSH OVC012 AMD LTD TO CLD VIS AND WIND